createdAt,value
2023-01-25T00:01:51.841Z,1.50
2023-01-25T00:04:21.119Z,1.60
2023-01-25T00:06:50.014Z,1.60
2023-01-25T00:09:19.117Z,1.60
2023-01-25T00:11:48.277Z,1.60
2023-01-25T00:14:17.488Z,1.50
2023-01-25T00:16:46.301Z,1.40
2023-01-25T00:19:16.371Z,1.40
2023-01-25T00:21:44.968Z,1.40
2023-01-25T00:24:14.712Z,1.30
2023-01-25T00:26:45.042Z,1.30
2023-01-25T00:29:15.215Z,1.40
2023-01-25T00:31:59.982Z,1.50
2023-01-25T00:34:48.093Z,1.50
2023-01-25T00:37:24.810Z,1.40
2023-01-25T00:39:53.787Z,1.40
2023-01-25T00:42:22.727Z,1.40
2023-01-25T00:44:51.490Z,1.40
2023-01-25T00:47:22.220Z,1.50
2023-01-25T00:49:52.500Z,1.50
2023-01-25T00:52:22.605Z,1.30
2023-01-25T00:54:51.410Z,1.40
2023-01-25T00:57:19.862Z,1.30
2023-01-25T00:59:48.653Z,1.30
2023-01-25T01:02:17.349Z,1.40
2023-01-25T01:04:46.659Z,1.30
2023-01-25T01:07:16.946Z,1.40
2023-01-25T01:09:47.140Z,1.40
2023-01-25T01:12:15.702Z,1.40
2023-01-25T01:14:44.276Z,1.40
2023-01-25T01:17:12.841Z,1.30
2023-01-25T01:19:41.470Z,1.30
2023-01-25T01:22:10.074Z,1.40
2023-01-25T01:24:41.824Z,1.30
2023-01-25T01:27:10.633Z,1.40
2023-01-25T01:29:38.992Z,1.30
2023-01-25T01:32:08.083Z,1.20
2023-01-25T01:34:39.132Z,1.00
2023-01-25T01:37:07.553Z,1.00
2023-01-25T01:39:36.327Z,1.00
2023-01-25T01:42:07.688Z,1.00
2023-01-25T01:44:49.480Z,1.00
2023-01-25T01:47:23.988Z,1.10
2023-01-25T01:50:01.739Z,1.10
2023-01-25T01:52:34.896Z,1.20
2023-01-25T01:55:06.874Z,1.20
2023-01-25T01:57:41.382Z,1.20
2023-01-25T02:00:15.687Z,1.10
2023-01-25T02:02:47.494Z,1.20
2023-01-25T02:05:22.149Z,1.10
2023-01-25T02:07:52.285Z,1.10
2023-01-25T02:10:23.201Z,1.10
2023-01-25T02:12:55.989Z,1.10
2023-01-25T02:15:25.361Z,1.20
2023-01-25T02:17:54.119Z,1.20
2023-01-25T02:20:29.418Z,1.30
2023-01-25T02:23:03.467Z,1.30
2023-01-25T02:25:35.612Z,1.20
2023-01-25T02:28:11.894Z,1.10
2023-01-25T02:30:41.246Z,1.10
2023-01-25T02:33:09.908Z,1.20
2023-01-25T02:35:42.095Z,1.30
2023-01-25T02:38:13.705Z,1.30
2023-01-25T02:40:53.524Z,1.20
2023-01-25T02:43:26.546Z,1.20
2023-01-25T02:46:05.041Z,1.20
2023-01-25T02:48:33.624Z,1.20
2023-01-25T02:51:02.377Z,1.20
2023-01-25T02:53:31.015Z,1.20
2023-01-25T02:56:00.964Z,1.30
2023-01-25T02:58:30.290Z,1.30
2023-01-25T03:00:59.968Z,1.20
2023-01-25T03:03:28.905Z,1.20
2023-01-25T03:05:57.496Z,1.10
2023-01-25T03:08:27.555Z,1.10
2023-01-25T03:10:59.121Z,1.20
2023-01-25T03:13:30.956Z,1.20
2023-01-25T03:16:01.729Z,1.20
2023-01-25T03:18:30.416Z,1.20
2023-01-25T03:21:06.289Z,1.20
2023-01-25T03:23:35.822Z,1.20
2023-01-25T03:26:11.370Z,1.20
2023-01-25T03:28:46.815Z,1.20
2023-01-25T03:31:17.732Z,1.30
2023-01-25T03:33:46.707Z,1.30
2023-01-25T03:36:15.524Z,1.20
2023-01-25T03:38:44.237Z,1.30
2023-01-25T03:41:15.142Z,1.30
2023-01-25T03:43:46.437Z,1.20
2023-01-25T03:46:18.713Z,1.10
2023-01-25T03:48:47.389Z,1.20
2023-01-25T03:51:16.309Z,1.20
2023-01-25T03:53:47.648Z,1.10
2023-01-25T03:56:20.629Z,1.10
2023-01-25T03:59:04.399Z,1.00
2023-01-25T04:01:34.506Z,0.90
2023-01-25T04:04:04.442Z,1.00
2023-01-25T04:06:34.964Z,0.90
2023-01-25T04:09:05.259Z,1.00
2023-01-25T04:11:40.363Z,0.90
2023-01-25T04:14:11.790Z,1.00
2023-01-25T04:16:49.662Z,1.10
2023-01-25T04:19:40.549Z,1.10
2023-01-25T04:22:13.069Z,1.10
2023-01-25T04:24:45.088Z,1.10
2023-01-25T04:27:14.489Z,1.10
2023-01-25T04:29:55.561Z,1.10
2023-01-25T04:32:26.903Z,1.00
2023-01-25T04:34:55.836Z,1.00
2023-01-25T04:37:28.151Z,1.00
2023-01-25T04:40:00.026Z,1.10
2023-01-25T04:42:32.523Z,1.10
2023-01-25T04:45:02.845Z,1.20
2023-01-25T04:47:31.430Z,1.20
2023-01-25T04:49:59.933Z,1.10
2023-01-25T04:52:32.106Z,1.10
2023-01-25T04:55:00.931Z,1.10
2023-01-25T04:57:31.586Z,1.00
2023-01-25T05:00:02.265Z,1.10
2023-01-25T05:02:31.028Z,1.00
2023-01-25T05:04:59.765Z,1.00
2023-01-25T05:07:29.058Z,1.00
2023-01-25T05:09:57.559Z,1.00
2023-01-25T05:12:26.482Z,1.00
2023-01-25T05:14:59.390Z,1.00
2023-01-25T05:17:29.861Z,1.00
2023-01-25T05:19:58.832Z,1.10
2023-01-25T05:22:27.734Z,1.00
2023-01-25T05:24:59.246Z,1.10
2023-01-25T05:27:27.046Z,1.10
2023-01-25T05:29:56.628Z,1.10
2023-01-25T05:32:50.495Z,1.20
2023-01-25T05:35:19.932Z,1.20
2023-01-25T05:37:50.760Z,1.20
2023-01-25T05:40:24.488Z,1.20
2023-01-25T05:42:56.823Z,1.30
2023-01-25T05:45:26.768Z,1.30
2023-01-25T05:47:59.589Z,1.30
2023-01-25T05:50:28.856Z,1.30
2023-01-25T05:53:07.697Z,1.20
2023-01-25T05:55:37.805Z,1.20
2023-01-25T05:58:10.881Z,1.20
2023-01-25T06:00:40.630Z,1.30
2023-01-25T06:03:11.985Z,1.40
2023-01-25T06:05:41.985Z,1.50
2023-01-25T06:08:10.534Z,1.30
2023-01-25T06:10:59.737Z,1.20
2023-01-25T06:13:30.499Z,1.40
2023-01-25T06:16:00.006Z,1.40
2023-01-25T06:18:46.102Z,1.30
2023-01-25T06:21:45.035Z,1.40
2023-01-25T06:33:44.339Z,1.30
2023-01-25T06:54:44.731Z,1.00
2023-01-25T06:57:13.900Z,1.10
2023-01-25T06:59:43.054Z,1.10
2023-01-25T07:02:16.768Z,1.10
2023-01-25T07:04:45.413Z,1.20
2023-01-25T07:07:14.230Z,1.10
2023-01-25T07:09:43.014Z,1.10
2023-01-25T07:12:12.423Z,1.10
2023-01-25T07:14:41.165Z,1.00
2023-01-25T07:17:10.334Z,1.00
2023-01-25T07:19:40.965Z,0.90
2023-01-25T07:22:10.338Z,0.90
2023-01-25T07:24:39.495Z,0.90
2023-01-25T07:27:08.793Z,0.80
2023-01-25T07:29:38.524Z,0.90
2023-01-25T07:32:08.041Z,1.00
2023-01-25T07:34:38.135Z,1.20
2023-01-25T07:37:10.704Z,1.10
2023-01-25T07:39:47.743Z,1.00
2023-01-25T07:42:16.822Z,0.90
2023-01-25T07:44:53.821Z,1.00
2023-01-25T07:47:23.058Z,1.00
2023-01-25T07:49:52.085Z,1.10
2023-01-25T07:52:22.761Z,1.20
2023-01-25T07:54:51.565Z,1.20
2023-01-25T07:57:20.600Z,1.20
2023-01-25T07:59:50.085Z,1.10
2023-01-25T08:02:18.917Z,1.10
2023-01-25T08:04:47.891Z,1.10
2023-01-25T08:07:17.132Z,1.10
2023-01-25T08:09:47.287Z,1.10
2023-01-25T08:12:17.670Z,1.10
2023-01-25T08:14:46.846Z,1.00
2023-01-25T08:17:15.600Z,1.00
2023-01-25T08:19:44.512Z,1.10
2023-01-25T08:22:14.066Z,1.30
2023-01-25T08:24:43.277Z,1.20
2023-01-25T08:27:14.034Z,1.10
2023-01-25T08:29:42.836Z,1.10
2023-01-25T08:32:11.528Z,1.10
2023-01-25T08:34:41.752Z,1.10
2023-01-25T08:37:10.806Z,1.10
2023-01-25T08:39:39.727Z,1.10
2023-01-25T08:42:08.473Z,1.10
2023-01-25T08:44:40.402Z,1.30
2023-01-25T08:47:09.349Z,1.40
2023-01-25T08:49:39.221Z,1.40
2023-01-25T08:52:08.317Z,1.40
2023-01-25T08:54:38.909Z,1.40
2023-01-25T08:57:08.917Z,1.40
2023-01-25T08:59:39.293Z,1.40
2023-01-25T09:02:08.316Z,1.30
2023-01-25T09:04:37.383Z,1.40
2023-01-25T09:07:06.741Z,1.50
2023-01-25T09:09:36.977Z,1.40
2023-01-25T09:12:07.275Z,1.40
2023-01-25T09:14:37.728Z,1.40
2023-01-25T09:17:09.136Z,1.50
2023-01-25T09:19:38.359Z,1.50
2023-01-25T09:22:08.326Z,1.60
2023-01-25T09:24:38.671Z,1.60
2023-01-25T09:27:11.065Z,1.60
2023-01-25T09:29:43.703Z,1.50
2023-01-25T09:32:17.271Z,1.50
2023-01-25T09:34:54.071Z,1.60
2023-01-25T09:37:27.919Z,1.60
2023-01-25T09:40:00.633Z,1.60
2023-01-25T09:42:55.397Z,1.50
2023-01-25T09:45:35.911Z,1.30
2023-01-25T09:48:19.945Z,1.40
2023-01-25T09:51:08.255Z,1.40
2023-01-25T09:53:40.315Z,1.40
2023-01-25T09:56:19.249Z,1.50
2023-01-25T09:58:54.576Z,1.60
2023-01-25T10:01:39.017Z,1.50
2023-01-25T10:04:23.135Z,1.60
2023-01-25T10:07:00.647Z,1.70
2023-01-25T10:09:41.571Z,1.60
2023-01-25T10:12:18.207Z,1.50
2023-01-25T10:14:50.405Z,1.40
2023-01-25T10:17:28.597Z,1.50
2023-01-25T10:20:26.095Z,1.40
2023-01-25T10:23:06.598Z,1.40
2023-01-25T10:25:43.856Z,1.40
2023-01-25T10:28:39.187Z,1.40
2023-01-25T10:31:15.863Z,1.40
2023-01-25T10:33:48.079Z,1.40
2023-01-25T10:36:25.122Z,1.40
2023-01-25T10:39:04.085Z,1.50
2023-01-25T10:41:42.771Z,1.60
2023-01-25T10:44:27.580Z,1.60
2023-01-25T10:47:04.524Z,1.30
2023-01-25T10:49:50.693Z,1.20
2023-01-25T10:52:23.553Z,1.20
2023-01-25T10:55:16.804Z,1.30
2023-01-25T10:57:53.975Z,1.20
2023-01-25T11:00:30.384Z,1.30
2023-01-25T11:03:03.509Z,1.40
2023-01-25T11:05:42.082Z,1.60
2023-01-25T11:08:36.236Z,1.60
2023-01-25T11:11:26.773Z,1.60
2023-01-25T11:13:56.501Z,1.60
2023-01-25T11:16:33.434Z,1.70
2023-01-25T11:19:25.365Z,1.80
2023-01-25T11:21:58.033Z,1.70
2023-01-25T11:24:39.331Z,1.70
2023-01-25T11:27:21.556Z,1.70
2023-01-25T11:30:11.586Z,1.80
2023-01-25T11:32:55.760Z,1.80
2023-01-25T11:35:33.572Z,1.90
2023-01-25T11:38:14.931Z,1.70
2023-01-25T11:40:51.259Z,1.50
2023-01-25T11:43:38.901Z,1.30
2023-01-25T11:46:25.859Z,1.30
2023-01-25T11:49:49.703Z,1.40
2023-01-25T11:52:31.462Z,1.40
2023-01-25T11:55:14.927Z,1.50
2023-01-25T11:58:03.546Z,1.60
2023-01-25T12:00:56.500Z,1.50
2023-01-25T12:04:32.246Z,1.40
2023-01-25T12:07:05.580Z,1.40
2023-01-25T12:09:56.797Z,1.50
2023-01-25T12:12:40.883Z,1.50
2023-01-25T12:15:47.148Z,1.70
2023-01-25T12:18:58.014Z,1.60
2023-01-25T12:21:46.153Z,1.60
2023-01-25T12:24:35.020Z,1.70
2023-01-25T12:27:15.995Z,1.80
2023-01-25T12:29:50.799Z,1.70
2023-01-25T12:32:29.897Z,1.70
2023-01-25T12:35:13.027Z,1.80
2023-01-25T12:37:45.554Z,1.90
2023-01-25T12:40:18.845Z,1.80
2023-01-25T12:42:54.279Z,1.80
2023-01-25T12:45:27.628Z,1.80
2023-01-25T12:48:02.563Z,1.80
2023-01-25T12:50:37.733Z,1.70
2023-01-25T12:53:16.137Z,1.60
2023-01-25T12:55:46.138Z,1.60
2023-01-25T12:58:32.807Z,1.40
2023-01-25T13:01:23.963Z,1.30
2023-01-25T13:04:16.393Z,1.40
2023-01-25T13:06:49.290Z,1.40
2023-01-25T13:09:24.283Z,1.20
2023-01-25T13:11:54.256Z,1.30
2023-01-25T13:14:38.302Z,1.40
2023-01-25T13:17:36.650Z,1.40
2023-01-25T13:20:44.966Z,1.40
2023-01-25T13:23:33.546Z,1.50
2023-01-25T13:26:40.007Z,1.50
2023-01-25T13:29:46.162Z,1.60
2023-01-25T13:32:57.159Z,1.60
2023-01-25T13:35:38.554Z,1.50
2023-01-25T13:38:35.991Z,1.60
2023-01-25T13:41:17.397Z,1.60
2023-01-25T13:43:49.837Z,1.60
2023-01-25T13:46:23.579Z,1.50
2023-01-25T13:49:03.339Z,1.50
2023-01-25T13:51:39.983Z,1.50
2023-01-25T13:54:16.382Z,1.40
2023-01-25T13:56:45.734Z,1.50
2023-01-25T13:59:33.156Z,1.40
2023-01-25T14:02:08.088Z,1.40
2023-01-25T14:04:37.413Z,1.30
2023-01-25T14:07:22.414Z,1.40
2023-01-25T14:09:52.242Z,1.30
2023-01-25T14:12:37.258Z,1.30
2023-01-25T14:20:17.985Z,1.20
2023-01-25T14:33:22.625Z,1.10
2023-01-25T14:37:03.691Z,1.20
2023-01-25T14:44:07.034Z,1.20
2023-01-25T14:46:47.096Z,1.30
2023-01-25T14:49:51.544Z,1.30
2023-01-25T14:52:48.735Z,1.20
2023-01-25T14:55:23.504Z,1.20
2023-01-25T14:59:11.334Z,1.30
2023-01-25T15:01:54.476Z,1.30
2023-01-25T15:04:24.685Z,1.30
2023-01-25T15:06:56.065Z,1.40
2023-01-25T15:10:14.329Z,1.40
2023-01-25T15:12:45.675Z,1.30
2023-01-25T15:16:21.400Z,1.20
2023-01-25T15:19:00.127Z,1.10
2023-01-25T15:21:38.665Z,1.10
2023-01-25T15:24:34.699Z,1.20
2023-01-25T15:39:07.742Z,1.10
2023-01-25T15:42:00.454Z,1.10
2023-01-25T15:48:36.961Z,1.10
2023-01-25T15:51:20.410Z,1.10
2023-01-25T15:54:12.423Z,1.10
2023-01-25T16:01:17.528Z,1.20
2023-01-25T16:05:15.460Z,1.10
2023-01-25T16:07:37.950Z,1.00
2023-01-25T16:10:23.902Z,0.90
2023-01-25T16:18:10.446Z,0.90
2023-01-25T16:20:43.082Z,0.90
2023-01-25T16:23:15.069Z,0.90
2023-01-25T16:25:51.016Z,1.00
2023-01-25T16:28:26.974Z,1.00
2023-01-25T16:31:30.267Z,1.00
2023-01-25T16:34:01.823Z,1.00
2023-01-25T16:36:33.423Z,0.90
2023-01-25T16:39:10.717Z,0.90
2023-01-25T16:41:55.284Z,0.90
2023-01-25T16:47:56.971Z,0.80
2023-01-25T16:50:28.075Z,0.80
2023-01-25T16:52:58.741Z,0.80
2023-01-25T16:59:58.132Z,0.90
2023-01-25T17:02:31.304Z,0.90
2023-01-25T17:05:05.828Z,0.90
2023-01-25T17:07:35.999Z,0.80
2023-01-25T17:10:10.384Z,0.90
2023-01-25T17:12:39.806Z,0.90
2023-01-25T17:15:27.074Z,0.80
2023-01-25T17:17:58.722Z,0.90
2023-01-25T17:20:42.994Z,0.90
2023-01-25T17:23:23.153Z,0.90
2023-01-25T17:26:02.639Z,0.90
2023-01-25T17:28:43.401Z,0.90
2023-01-25T17:31:33.350Z,0.80
2023-01-25T17:34:20.435Z,0.80
2023-01-25T17:36:56.197Z,0.70
2023-01-25T17:40:01.215Z,0.80
2023-01-25T17:42:47.004Z,0.80
2023-01-25T17:45:22.769Z,0.80
2023-01-25T17:48:07.794Z,0.80
2023-01-25T17:51:24.759Z,0.80
2023-01-25T17:54:13.418Z,0.80
2023-01-25T17:57:17.493Z,0.80
2023-01-25T17:59:57.674Z,0.60
2023-01-25T18:05:03.671Z,0.50
2023-01-25T18:07:18.282Z,0.50
2023-01-25T18:09:58.306Z,0.50
2023-01-25T18:13:16.879Z,0.40
2023-01-25T18:16:40.644Z,0.40
2023-01-25T18:19:44.593Z,0.30
2023-01-25T18:23:46.232Z,0.30
2023-01-25T18:30:17.376Z,0.10
2023-01-25T18:33:35.841Z,0.00
2023-01-25T18:36:17.984Z,0.00
2023-01-25T18:39:05.041Z,0.10
2023-01-25T18:41:48.215Z,0.10
2023-01-25T18:44:20.416Z,0.10
2023-01-25T18:47:16.322Z,0.10
2023-01-25T18:50:03.766Z,0.30
2023-01-25T18:52:41.370Z,0.30
2023-01-25T18:55:39.729Z,0.30
2023-01-25T18:58:59.003Z,0.30
2023-01-25T19:01:44.036Z,0.20
2023-01-25T19:06:14.899Z,0.10
2023-01-25T19:08:08.647Z,0.20
2023-01-25T19:15:11.928Z,0.20
2023-01-25T19:19:23.742Z,0.20
2023-01-25T19:40:42.161Z,0.10
2023-01-25T19:43:10.807Z,0.10
2023-01-25T19:45:39.825Z,0.20
2023-01-25T19:48:08.634Z,0.20
2023-01-25T19:50:37.541Z,0.20
2023-01-25T19:53:07.204Z,0.10
2023-01-25T19:55:35.940Z,0.10
2023-01-25T19:58:08.917Z,0.10
2023-01-25T20:00:38.197Z,0.10
2023-01-25T20:03:15.860Z,0.10
2023-01-25T20:05:44.977Z,0.10
2023-01-25T20:08:13.524Z,0.00
2023-01-25T20:10:42.061Z,0.00
2023-01-25T20:13:12.273Z,-0.10
2023-01-25T20:15:46.842Z,-0.10
2023-01-25T20:18:15.716Z,-0.20
2023-01-25T20:20:44.616Z,-0.20
2023-01-25T20:23:13.006Z,-0.10
2023-01-25T20:25:46.624Z,-0.10
2023-01-25T20:28:16.945Z,-0.20
2023-01-25T20:30:45.520Z,-0.10
2023-01-25T20:33:14.041Z,-0.10
2023-01-25T20:35:42.612Z,-0.10
2023-01-25T20:38:11.180Z,-0.10
2023-01-25T20:40:40.039Z,-0.10
2023-01-25T20:43:08.589Z,-0.10
2023-01-25T20:45:38.630Z,-0.10
2023-01-25T20:48:07.890Z,-0.20
2023-01-25T20:50:36.744Z,-0.20
2023-01-25T20:53:06.542Z,-0.20
2023-01-25T20:55:35.243Z,-0.10
2023-01-25T20:58:03.874Z,0.00
2023-01-25T21:00:32.777Z,-0.10
2023-01-25T21:03:03.642Z,0.00
2023-01-25T21:05:32.278Z,0.00
2023-01-25T21:08:00.961Z,0.00
2023-01-25T21:10:29.734Z,-0.10
2023-01-25T21:12:58.527Z,0.00
2023-01-25T21:15:27.344Z,-0.10
2023-01-25T21:17:55.965Z,-0.10
2023-01-25T21:20:26.439Z,0.00
2023-01-25T21:22:55.041Z,0.00
2023-01-25T21:25:23.812Z,-0.10
2023-01-25T21:27:53.523Z,-0.10
2023-01-25T21:30:23.278Z,-0.10
2023-01-25T21:32:52.097Z,-0.20
2023-01-25T21:35:20.677Z,-0.10
2023-01-25T21:37:50.992Z,-0.20
2023-01-25T21:40:20.757Z,-0.10
2023-01-25T21:42:49.222Z,-0.30
2023-01-25T21:45:35.658Z,-0.30
2023-01-25T21:48:07.457Z,-0.30
2023-01-25T21:50:53.457Z,-0.20
2023-01-25T21:53:23.759Z,-0.30
2023-01-25T21:55:57.282Z,-0.20
2023-01-25T21:58:25.775Z,-0.30
2023-01-25T22:00:54.115Z,-0.40
2023-01-25T22:03:24.659Z,-0.50
2023-01-25T22:05:55.881Z,-0.60
2023-01-25T22:08:25.915Z,-0.60
2023-01-25T22:10:54.438Z,-0.60
2023-01-25T22:13:23.281Z,-0.60
2023-01-25T22:15:52.214Z,-0.60
2023-01-25T22:18:20.994Z,-0.70
2023-01-25T22:20:49.611Z,-0.70
2023-01-25T22:23:17.981Z,-0.70
2023-01-25T22:25:48.915Z,-0.60
2023-01-25T22:28:20.886Z,-0.60
2023-01-25T22:30:49.498Z,-0.60
2023-01-25T22:33:21.620Z,-0.60
2023-01-25T22:35:50.236Z,-0.70
2023-01-25T22:38:18.898Z,-0.80
2023-01-25T22:40:49.231Z,-0.80
2023-01-25T22:43:18.000Z,-0.60
2023-01-25T22:45:53.748Z,-0.60
2023-01-25T22:48:22.787Z,-0.70
2023-01-25T22:50:51.435Z,-0.70
2023-01-25T22:53:19.982Z,-0.70
2023-01-25T22:55:49.889Z,-0.60
2023-01-25T22:58:18.533Z,-0.60
2023-01-25T23:00:47.824Z,-0.70
2023-01-25T23:03:19.176Z,-0.70
2023-01-25T23:05:48.140Z,-0.70
2023-01-25T23:08:19.938Z,-0.70
2023-01-25T23:10:50.112Z,-0.70
2023-01-25T23:13:18.677Z,-0.70
2023-01-25T23:15:47.395Z,-0.70
2023-01-25T23:18:48.040Z,-0.60
2023-01-25T23:21:17.668Z,-0.60
2023-01-25T23:23:47.227Z,-0.70
2023-01-25T23:26:17.959Z,-0.70
2023-01-25T23:28:52.272Z,-0.70
2023-01-25T23:31:22.793Z,-0.70
2023-01-25T23:33:54.173Z,-0.80
2023-01-25T23:36:24.537Z,-0.70
2023-01-25T23:38:54.191Z,-0.70
2023-01-25T23:41:26.510Z,-0.60
2023-01-25T23:43:56.081Z,-0.50
2023-01-25T23:46:25.590Z,-0.60
2023-01-25T23:48:54.156Z,-0.60
2023-01-25T23:51:22.808Z,-0.60
2023-01-25T23:53:53.576Z,-0.60
2023-01-25T23:56:24.980Z,-0.60
2023-01-25T23:58:53.474Z,-0.60
